createdAt,value
2022-12-14T00:00:06.901Z,8.5
2022-12-14T00:02:05.700Z,8.4
2022-12-14T00:04:13.305Z,8.4
2022-12-14T00:06:06.701Z,8.4
2022-12-14T00:08:38.269Z,8.4
2022-12-14T00:10:06.879Z,8.3
2022-12-14T00:12:05.599Z,8.3
2022-12-14T00:14:05.583Z,8.3
2022-12-14T00:16:05.841Z,8.4
2022-12-14T00:18:12.601Z,8.4
2022-12-14T00:20:05.611Z,8.4
2022-12-14T00:22:06.953Z,8.3
2022-12-14T00:24:05.643Z,8.3
2022-12-14T00:26:07.572Z,8.2
2022-12-14T00:28:06.701Z,8.3
2022-12-14T00:29:42.550Z,8.3
2022-12-14T00:30:14.682Z,8.2
2022-12-14T00:32:05.644Z,8.1
2022-12-14T00:34:05.600Z,8
2022-12-14T00:36:05.711Z,8
2022-12-14T00:38:11.383Z,8.1
2022-12-14T00:40:06.635Z,8
2022-12-14T00:42:05.499Z,7.9
2022-12-14T00:44:05.512Z,7.9
2022-12-14T00:46:05.611Z,7.8
2022-12-14T00:48:05.496Z,7.9
2022-12-14T00:50:05.521Z,7.8
2022-12-14T00:52:05.585Z,7.7
2022-12-14T00:54:05.645Z,7.7
2022-12-14T00:56:05.503Z,7.6
2022-12-14T00:58:11.489Z,7.6
2022-12-14T01:00:09.978Z,7.6
2022-12-14T01:02:05.568Z,7.5
2022-12-14T01:04:05.573Z,7.5
2022-12-14T01:06:05.470Z,7.5
2022-12-14T01:08:05.422Z,7.5
2022-12-14T01:10:05.488Z,7.4
2022-12-14T01:12:05.710Z,7.5
2022-12-14T01:14:05.448Z,7.4
2022-12-14T01:16:05.484Z,7.4
2022-12-14T01:18:05.441Z,7.4
2022-12-14T01:20:05.453Z,7.4
2022-12-14T01:22:05.503Z,7.3
2022-12-14T01:24:05.629Z,7.2
2022-12-14T01:26:06.697Z,7.2
2022-12-14T01:28:07.170Z,7.2
2022-12-14T01:30:05.528Z,7.2
2022-12-14T01:32:05.452Z,7.1
2022-12-14T01:34:05.511Z,7.1
2022-12-14T01:36:05.514Z,7.1
2022-12-14T01:38:05.481Z,7.1
2022-12-14T01:40:06.526Z,7
2022-12-14T01:42:06.109Z,7
2022-12-14T01:43:08.791Z,7
2022-12-14T01:44:33.834Z,7
2022-12-14T01:46:05.507Z,7
2022-12-14T01:48:05.543Z,7.1
2022-12-14T01:50:05.447Z,7
2022-12-14T01:52:05.582Z,7.1
2022-12-14T01:54:05.468Z,7.1
2022-12-14T01:56:05.469Z,7.1
2022-12-14T01:58:16.005Z,7.2
2022-12-14T02:00:07.510Z,7.1
2022-12-14T02:02:07.508Z,7.1
2022-12-14T02:04:05.420Z,7
2022-12-14T02:06:05.444Z,7
2022-12-14T02:08:05.485Z,7.1
2022-12-14T02:10:05.381Z,7
2022-12-14T02:12:05.829Z,7
2022-12-14T02:14:05.437Z,7.1
2022-12-14T02:16:05.492Z,7.1
2022-12-14T02:18:05.459Z,7.1
2022-12-14T02:20:05.344Z,7
2022-12-14T02:22:05.380Z,7
2022-12-14T02:24:05.428Z,6.9
2022-12-14T02:26:05.376Z,6.9
2022-12-14T02:28:05.483Z,6.9
2022-12-14T02:30:05.453Z,6.9
2022-12-14T02:32:13.139Z,6.9
2022-12-14T02:34:05.431Z,6.9
2022-12-14T02:36:05.405Z,6.9
2022-12-14T02:38:05.372Z,6.9
2022-12-14T02:40:05.373Z,6.8
2022-12-14T02:42:15.953Z,6.8
2022-12-14T02:44:05.430Z,6.7
2022-12-14T02:46:06.730Z,6.6
2022-12-14T02:48:05.461Z,6.7
2022-12-14T02:50:05.323Z,6.6
2022-12-14T02:52:05.332Z,6.5
2022-12-14T02:54:06.706Z,6.5
2022-12-14T02:56:05.353Z,6.5
2022-12-14T02:58:05.322Z,6.5
2022-12-14T03:00:05.380Z,6.4
2022-12-14T03:02:17.682Z,6.4
2022-12-14T03:04:05.351Z,6.4
2022-12-14T03:06:05.465Z,6.3
2022-12-14T03:08:05.370Z,6.4
2022-12-14T03:10:05.323Z,6.3
2022-12-14T03:12:06.734Z,6.3
2022-12-14T03:14:05.313Z,6.2
2022-12-14T03:16:05.387Z,6.2
2022-12-14T03:18:06.673Z,6.3
2022-12-14T03:20:05.318Z,6.3
2022-12-14T03:22:06.340Z,6.3
2022-12-14T03:24:05.492Z,6.3
2022-12-14T03:26:09.787Z,6.3
2022-12-14T03:28:05.369Z,6.3
2022-12-14T03:30:05.311Z,6.3
2022-12-14T03:32:05.353Z,6.3
2022-12-14T03:34:05.308Z,6.3
2022-12-14T03:36:05.397Z,6.3
2022-12-14T03:38:06.735Z,6.4
2022-12-14T03:38:48.800Z,6.4
2022-12-14T03:40:05.357Z,6.3
2022-12-14T03:42:05.337Z,6.3
2022-12-14T03:44:06.499Z,6.2
2022-12-14T03:46:05.395Z,6.2
2022-12-14T03:48:05.658Z,6.2
2022-12-14T03:50:11.160Z,6.2
2022-12-14T03:52:05.348Z,6.1
2022-12-14T03:54:05.338Z,6.1
2022-12-14T03:56:05.718Z,6
2022-12-14T03:58:05.406Z,6
2022-12-14T04:00:34.769Z,5.9
2022-12-14T04:02:05.370Z,5.9
2022-12-14T04:04:05.359Z,5.8
2022-12-14T04:06:06.513Z,5.8
2022-12-14T04:08:06.585Z,5.9
2022-12-14T04:10:05.351Z,5.8
2022-12-14T04:12:06.419Z,5.7
2022-12-14T04:14:05.396Z,5.7
2022-12-14T04:16:05.295Z,5.6
2022-12-14T04:18:05.295Z,5.6
2022-12-14T04:20:05.244Z,5.6
2022-12-14T04:22:05.304Z,5.6
2022-12-14T04:24:05.255Z,5.6
2022-12-14T04:26:05.272Z,5.6
2022-12-14T04:28:05.199Z,5.6
2022-12-14T04:30:05.282Z,5.6
2022-12-14T04:32:07.833Z,5.6
2022-12-14T04:34:05.220Z,5.6
2022-12-14T04:36:05.197Z,5.5
2022-12-14T04:38:05.295Z,5.5
2022-12-14T04:40:05.176Z,5.5
2022-12-14T04:42:05.232Z,5.4
2022-12-14T04:44:05.184Z,5.4
2022-12-14T04:46:06.791Z,5.4
2022-12-14T04:48:05.635Z,5.5
2022-12-14T04:50:07.694Z,5.5
2022-12-14T04:52:06.328Z,5.5
2022-12-14T04:54:05.568Z,5.5
2022-12-14T04:56:05.194Z,5.5
2022-12-14T04:58:05.193Z,5.5
2022-12-14T05:00:05.211Z,5.4
2022-12-14T05:02:05.352Z,5.4
2022-12-14T05:04:08.248Z,5.4
2022-12-14T05:06:09.591Z,5.3
2022-12-14T05:08:05.226Z,5.4
2022-12-14T05:10:05.210Z,5.4
2022-12-14T05:12:15.663Z,5.3
2022-12-14T05:14:05.185Z,5.3
2022-12-14T05:16:05.123Z,5.2
2022-12-14T05:18:05.237Z,5.3
2022-12-14T05:20:05.122Z,5.2
2022-12-14T05:22:05.178Z,5.2
2022-12-14T05:24:05.231Z,5.2
2022-12-14T05:26:05.127Z,5.2
2022-12-14T05:28:05.144Z,5.3
2022-12-14T05:30:05.177Z,5.3
2022-12-14T05:32:05.131Z,5.3
2022-12-14T05:34:05.135Z,5.3
2022-12-14T05:36:05.202Z,5.3
2022-12-14T05:38:05.111Z,5.4
2022-12-14T05:40:05.161Z,5.4
2022-12-14T05:42:05.357Z,5.4
2022-12-14T05:44:05.136Z,5.3
2022-12-14T05:46:09.549Z,5.3
2022-12-14T05:48:05.195Z,5.4
2022-12-14T05:50:05.066Z,5.3
2022-12-14T05:52:06.360Z,5.3
2022-12-14T05:54:05.357Z,5.3
2022-12-14T05:56:05.037Z,5.3
2022-12-14T05:58:06.442Z,5.4
2022-12-14T06:00:05.284Z,5.4
2022-12-14T06:02:27.910Z,5.4
2022-12-14T06:04:52.391Z,27.5
2022-12-14T06:04:52.449Z,5.4
2022-12-14T06:06:06.155Z,5.4
2022-12-14T06:08:05.108Z,5.4
2022-12-14T06:10:05.103Z,5.4
2022-12-14T06:12:05.111Z,5.5
2022-12-14T06:14:05.098Z,5.5
2022-12-14T06:16:12.943Z,5.4
2022-12-14T06:18:06.362Z,5.5
2022-12-14T06:20:05.062Z,5.5
2022-12-14T06:22:05.073Z,5.4
2022-12-14T06:24:05.095Z,5.4
2022-12-14T06:26:05.036Z,5.3
2022-12-14T06:28:05.052Z,5.4
2022-12-14T06:30:05.110Z,5.4
2022-12-14T06:32:05.074Z,5.4
2022-12-14T06:34:06.310Z,5.4
2022-12-14T06:36:05.094Z,5.4
2022-12-14T06:38:04.967Z,5.5
2022-12-14T06:40:09.680Z,5.5
2022-12-14T06:42:05.076Z,5.4
2022-12-14T06:44:05.060Z,5.4
2022-12-14T06:46:07.539Z,5.4
2022-12-14T06:48:06.329Z,5.4
2022-12-14T06:50:04.953Z,5.4
2022-12-14T06:52:05.025Z,5.4
2022-12-14T06:54:05.038Z,5.5
2022-12-14T06:56:04.974Z,5.5
2022-12-14T06:58:05.031Z,5.6
2022-12-14T07:00:04.992Z,5.6
2022-12-14T07:02:07.174Z,5.6
2022-12-14T07:04:28.644Z,5.5
2022-12-14T07:06:05.088Z,5.5
2022-12-14T07:08:05.011Z,5.5
2022-12-14T07:10:05.018Z,5.4
2022-12-14T07:12:05.018Z,5.4
2022-12-14T07:14:05.035Z,5.4
2022-12-14T07:16:05.042Z,5.3
2022-12-14T07:18:05.012Z,5.3
2022-12-14T07:20:04.981Z,5.3
2022-12-14T07:22:06.306Z,5.2
2022-12-14T07:24:05.050Z,5.2
2022-12-14T07:26:04.986Z,5.2
2022-12-14T07:28:05.037Z,5.2
2022-12-14T07:30:04.996Z,5.2
2022-12-14T07:32:05.053Z,5.1
2022-12-14T07:34:07.558Z,5.1
2022-12-14T07:36:05.168Z,5.1
2022-12-14T07:38:05.022Z,5.1
2022-12-14T07:40:04.941Z,5.2
2022-12-14T07:42:04.952Z,5.2
2022-12-14T07:44:04.957Z,5.2
2022-12-14T07:46:05.056Z,5.1
2022-12-14T07:48:04.980Z,5.2
2022-12-14T07:50:04.996Z,5.1
2022-12-14T07:52:04.953Z,5.1
2022-12-14T07:54:28.766Z,5.1
2022-12-14T07:56:06.379Z,5
2022-12-14T07:58:04.977Z,5
2022-12-14T08:00:04.980Z,5
2022-12-14T08:02:05.101Z,5
2022-12-14T08:04:05.329Z,4.9
2022-12-14T08:06:06.443Z,4.9
2022-12-14T08:08:05.134Z,4.9
2022-12-14T08:10:05.094Z,4.9
2022-12-14T08:12:27.645Z,4.9
2022-12-14T08:14:04.961Z,4.8
2022-12-14T08:16:06.096Z,4.8
2022-12-14T08:18:04.972Z,4.8
2022-12-14T08:20:04.970Z,4.8
2022-12-14T08:22:06.168Z,4.8
2022-12-14T08:24:04.969Z,4.8
2022-12-14T08:26:04.959Z,4.7
2022-12-14T08:28:04.890Z,4.7
2022-12-14T08:30:04.887Z,4.7
2022-12-14T08:32:04.885Z,4.7
2022-12-14T08:34:04.893Z,4.7
2022-12-14T08:36:04.962Z,4.6
2022-12-14T08:38:04.906Z,4.6
2022-12-14T08:40:04.901Z,4.7
2022-12-14T08:42:04.891Z,4.7
2022-12-14T08:44:04.911Z,4.6
2022-12-14T08:46:04.884Z,4.7
2022-12-14T08:48:04.910Z,4.7
2022-12-14T08:50:04.861Z,4.8
2022-12-14T08:52:04.840Z,4.8
2022-12-14T08:54:04.862Z,4.8
2022-12-14T08:56:04.860Z,4.8
2022-12-14T08:58:04.953Z,4.8
2022-12-14T09:00:05.925Z,4.8
2022-12-14T09:02:05.092Z,4.8
2022-12-14T09:04:05.233Z,4.8
2022-12-14T09:06:04.947Z,4.8
2022-12-14T09:08:04.998Z,4.9
2022-12-14T09:10:04.901Z,4.9
2022-12-14T09:12:04.895Z,4.9
2022-12-14T09:14:04.956Z,4.9
2022-12-14T09:16:04.919Z,4.9
2022-12-14T09:18:04.874Z,4.9
2022-12-14T09:20:04.870Z,4.9
2022-12-14T09:22:06.222Z,4.9
2022-12-14T09:24:04.858Z,4.9
2022-12-14T09:26:04.850Z,4.9
2022-12-14T09:28:04.864Z,4.9
2022-12-14T09:30:04.859Z,4.9
2022-12-14T09:32:04.857Z,4.9
2022-12-14T09:34:07.356Z,4.8
2022-12-14T09:36:04.824Z,4.8
2022-12-14T09:38:04.799Z,4.8
2022-12-14T09:40:06.046Z,4.8
2022-12-14T09:42:04.902Z,4.8
2022-12-14T09:44:04.869Z,4.8
2022-12-14T09:46:04.902Z,4.8
2022-12-14T09:48:05.354Z,4.8
2022-12-14T09:50:04.835Z,4.8
2022-12-14T09:52:04.791Z,4.7
2022-12-14T09:54:04.812Z,4.7
2022-12-14T09:56:04.748Z,4.7
2022-12-14T09:58:07.797Z,4.7
2022-12-14T10:00:05.954Z,4.7
2022-12-14T10:02:31.233Z,4.7
2022-12-14T10:04:04.930Z,4.6
2022-12-14T10:06:04.852Z,4.6
2022-12-14T10:08:04.824Z,4.6
2022-12-14T10:10:04.815Z,4.6
2022-12-14T10:12:05.164Z,4.7
2022-12-14T10:14:04.795Z,4.7
2022-12-14T10:16:04.829Z,4.7
2022-12-14T10:18:04.765Z,4.7
2022-12-14T10:20:04.710Z,4.8
2022-12-14T10:22:04.747Z,4.7
2022-12-14T10:24:04.787Z,4.7
2022-12-14T10:26:04.716Z,4.7
2022-12-14T10:28:11.712Z,4.7
2022-12-14T10:30:06.516Z,4.7
2022-12-14T10:32:04.705Z,4.7
2022-12-14T10:34:06.523Z,4.6
2022-12-14T10:36:07.263Z,4.7
2022-12-14T10:38:04.677Z,4.6
2022-12-14T10:40:09.455Z,4.7
2022-12-14T10:42:04.731Z,4.7
2022-12-14T10:44:06.135Z,4.6
2022-12-14T10:46:08.652Z,4.6
2022-12-14T10:48:07.272Z,4.6
2022-12-14T10:50:06.100Z,4.6
2022-12-14T10:52:04.727Z,4.6
2022-12-14T10:54:05.910Z,4.5
2022-12-14T10:56:07.434Z,4.5
2022-12-14T10:58:04.688Z,4.5
2022-12-14T11:00:09.368Z,4.5
2022-12-14T11:02:04.959Z,4.5
2022-12-14T11:04:04.709Z,4.5
2022-12-14T11:06:05.787Z,4.5
2022-12-14T11:08:04.649Z,4.6
2022-12-14T11:10:04.638Z,4.6
2022-12-14T11:12:04.923Z,4.6
2022-12-14T11:14:06.285Z,4.5
2022-12-14T11:16:04.714Z,4.5
2022-12-14T11:18:04.954Z,4.5
2022-12-14T11:20:06.095Z,4.5
2022-12-14T11:22:04.665Z,4.4
2022-12-14T11:24:04.690Z,4.4
2022-12-14T11:26:04.642Z,4.4
2022-12-14T11:28:04.761Z,4.4
2022-12-14T11:30:04.671Z,4.4
2022-12-14T11:32:04.687Z,4.5
2022-12-14T11:34:04.672Z,4.4
2022-12-14T11:36:04.670Z,4.4
2022-12-14T11:38:04.654Z,4.4
2022-12-14T11:40:04.975Z,4.5
2022-12-14T11:42:06.060Z,4.6
2022-12-14T11:44:04.698Z,4.6
2022-12-14T11:46:06.301Z,4.6
2022-12-14T11:47:41.230Z,4.6
2022-12-14T11:48:06.164Z,4.5
2022-12-14T11:50:06.091Z,4.5
2022-12-14T11:52:06.060Z,4.5
2022-12-14T11:54:04.759Z,4.5
2022-12-14T11:56:04.762Z,4.5
2022-12-14T11:58:06.123Z,4.6
2022-12-14T12:00:06.037Z,4.6
2022-12-14T12:02:04.814Z,4.7
2022-12-14T12:04:04.728Z,4.6
2022-12-14T12:06:07.251Z,4.6
2022-12-14T12:08:04.623Z,4.6
2022-12-14T12:10:37.967Z,4.6
2022-12-14T12:11:45.636Z,4.6
2022-12-14T12:14:05.852Z,4.5
2022-12-14T12:16:08.991Z,4.5
2022-12-14T12:18:31.941Z,4.5
2022-12-14T12:20:27.392Z,4.5
2022-12-14T12:22:08.877Z,4.4
2022-12-14T12:24:19.027Z,4.4
2022-12-14T12:26:04.578Z,4.4
2022-12-14T12:28:04.704Z,4.5
2022-12-14T12:30:04.572Z,4.5
2022-12-14T12:32:04.639Z,4.4
2022-12-14T12:34:04.689Z,4.4
2022-12-14T12:36:09.032Z,4.4
2022-12-14T12:38:04.674Z,4.4
2022-12-14T12:40:04.814Z,4.5
2022-12-14T12:42:05.500Z,4.4
2022-12-14T12:44:08.814Z,4.4
2022-12-14T12:46:16.760Z,4.4
2022-12-14T12:48:07.446Z,4.5
2022-12-14T12:50:04.573Z,4.5
2022-12-14T12:52:05.759Z,4.5
2022-12-14T12:54:04.600Z,4.5
2022-12-14T12:56:05.976Z,4.6
2022-12-14T12:58:07.450Z,4.6
2022-12-14T13:00:08.918Z,4.6
2022-12-14T13:02:04.588Z,4.6
2022-12-14T13:04:05.751Z,4.6
2022-12-14T13:06:14.990Z,4.6
2022-12-14T13:08:34.874Z,4.6
2022-12-14T13:10:06.013Z,4.7
2022-12-14T13:12:04.565Z,4.7
2022-12-14T13:14:04.577Z,4.7
2022-12-14T13:16:04.625Z,4.8
2022-12-14T13:18:12.202Z,4.8
2022-12-14T13:20:07.240Z,4.9
2022-12-14T13:22:33.784Z,4.9
2022-12-14T13:24:28.856Z,5
2022-12-14T13:26:06.594Z,5
2022-12-14T13:28:04.646Z,5
2022-12-14T13:30:04.560Z,5.1
2022-12-14T13:32:36.882Z,5.1
2022-12-14T13:34:32.262Z,5.1
2022-12-14T13:36:34.699Z,5.2
2022-12-14T13:38:10.415Z,5.2
2022-12-14T13:39:10.624Z,5.2
2022-12-14T13:40:04.721Z,5.3
2022-12-14T13:42:08.916Z,5.3
2022-12-14T13:44:04.786Z,5.3
2022-12-14T13:46:04.832Z,5.4
2022-12-14T13:48:07.698Z,5.4
2022-12-14T13:50:34.628Z,5.5
2022-12-14T13:51:25.858Z,5.5
2022-12-14T13:52:05.633Z,5.5
2022-12-14T13:54:05.840Z,5.6
2022-12-14T13:56:04.473Z,5.6
2022-12-14T13:58:04.650Z,5.7
2022-12-14T14:00:06.015Z,5.8
2022-12-14T14:02:19.709Z,5.8
2022-12-14T14:04:04.595Z,5.8
2022-12-14T14:06:04.553Z,5.8
2022-12-14T14:06:52.710Z,5.8
2022-12-14T14:08:08.694Z,5.9
2022-12-14T14:10:06.597Z,5.9
2022-12-14T14:12:04.546Z,6
2022-12-14T14:14:04.453Z,6
2022-12-14T14:16:28.863Z,6
2022-12-14T14:18:05.170Z,6.1
2022-12-14T14:20:04.419Z,6.1
2022-12-14T14:22:23.183Z,6.2
2022-12-14T14:24:04.460Z,6.2
2022-12-14T14:26:14.701Z,6.2
2022-12-14T14:28:28.816Z,6.3
2022-12-14T14:30:04.623Z,6.4
2022-12-14T14:32:06.404Z,6.4
2022-12-14T14:34:05.834Z,6.5
2022-12-14T14:36:04.478Z,6.5
2022-12-14T14:38:04.469Z,6.5
2022-12-14T14:40:20.593Z,6.6
2022-12-14T14:42:06.273Z,6.7
2022-12-14T14:44:04.445Z,6.7
2022-12-14T14:46:04.604Z,6.7
2022-12-14T14:48:09.001Z,6.8
2022-12-14T14:50:04.458Z,6.8
2022-12-14T14:52:08.822Z,6.9
2022-12-14T14:55:21.568Z,6.9
2022-12-14T14:56:05.846Z,7
2022-12-14T14:58:04.456Z,7
2022-12-14T15:00:05.465Z,7.2
2022-12-14T15:02:04.448Z,7.3
2022-12-14T15:04:07.216Z,7.3
2022-12-14T15:06:08.752Z,7.3
2022-12-14T15:08:04.447Z,7.3
2022-12-14T15:10:31.662Z,7.4
2022-12-14T15:12:05.784Z,7.5
2022-12-14T15:14:04.418Z,7.5
2022-12-14T15:16:04.401Z,7.6
2022-12-14T15:18:08.544Z,7.6
2022-12-14T15:20:04.355Z,7.7
2022-12-14T15:22:06.961Z,7.7
2022-12-14T15:24:14.532Z,7.8
2022-12-14T15:26:04.409Z,7.8
2022-12-14T15:28:05.776Z,7.8
2022-12-14T15:30:06.407Z,7.9
2022-12-14T15:32:12.632Z,8
2022-12-14T15:34:05.776Z,8.1
2022-12-14T15:36:05.854Z,8.1
2022-12-14T15:38:06.631Z,8.1
2022-12-14T15:40:05.498Z,8.2
2022-12-14T15:42:06.178Z,8.2
2022-12-14T15:44:04.426Z,8.2
2022-12-14T15:46:13.840Z,8.3
2022-12-14T15:48:04.566Z,8.3
2022-12-14T15:50:07.070Z,8.4
2022-12-14T15:52:05.460Z,8.4
2022-12-14T15:54:14.834Z,8.4
2022-12-14T15:56:11.865Z,8.5
2022-12-14T15:58:06.764Z,8.5
2022-12-14T16:00:04.332Z,8.6
2022-12-14T16:02:07.902Z,8.6
2022-12-14T16:04:04.373Z,8.7
2022-12-14T16:05:50.151Z,8.7
2022-12-14T16:08:05.642Z,8.8
2022-12-14T16:10:04.404Z,8.9
2022-12-14T16:12:04.353Z,8.9
2022-12-14T16:14:10.217Z,8.9
2022-12-14T16:16:06.346Z,9
2022-12-14T16:18:04.418Z,9
2022-12-14T16:20:07.028Z,9.1
2022-12-14T16:22:04.276Z,9.1
2022-12-14T16:24:04.433Z,9.1
2022-12-14T16:26:06.322Z,9.1
2022-12-14T16:28:06.779Z,9.1
2022-12-14T16:30:05.419Z,9.2
2022-12-14T16:32:28.858Z,9.2
2022-12-14T16:34:06.385Z,9.2
2022-12-14T16:36:04.397Z,9.2
2022-12-14T16:38:04.316Z,9.3
2022-12-14T16:40:04.290Z,9.4
2022-12-14T16:42:04.338Z,9.4
2022-12-14T16:44:05.428Z,9.4
2022-12-14T16:46:10.026Z,9.4
2022-12-14T16:48:04.386Z,9.5
2022-12-14T16:50:07.034Z,9.5
2022-12-14T16:52:08.144Z,9.6
2022-12-14T16:54:04.388Z,9.6
2022-12-14T16:54:28.723Z,9.6
2022-12-14T16:56:04.417Z,9.6
2022-12-14T16:58:08.825Z,9.5
2022-12-14T17:00:06.319Z,9.6
2022-12-14T17:02:11.614Z,9.6
2022-12-14T17:04:05.600Z,9.6
2022-12-14T17:06:18.707Z,9.6
2022-12-14T17:07:40.756Z,9.6
2022-12-14T17:08:06.244Z,9.7
2022-12-14T17:10:06.570Z,9.7
2022-12-14T17:12:04.339Z,9.8
2022-12-14T17:14:05.715Z,9.9
2022-12-14T17:16:09.868Z,9.9
2022-12-14T17:18:05.256Z,10
2022-12-14T17:20:13.746Z,10.1
2022-12-14T17:22:04.787Z,10.1
2022-12-14T17:24:04.271Z,10.2
2022-12-14T17:26:04.213Z,10.2
2022-12-14T17:28:04.227Z,10.3
2022-12-14T17:30:04.319Z,10.3
2022-12-14T17:32:27.015Z,10.4
2022-12-14T17:34:04.216Z,10.3
2022-12-14T17:34:34.668Z,10.3
2022-12-14T17:36:04.198Z,10.4
2022-12-14T17:38:04.545Z,10.4
2022-12-14T17:40:08.708Z,10.4
2022-12-14T17:42:04.207Z,10.5
2022-12-14T17:44:05.407Z,10.5
2022-12-14T17:46:30.772Z,10.5
2022-12-14T17:48:06.344Z,10.5
2022-12-14T17:50:05.328Z,10.5
2022-12-14T17:52:05.442Z,10.6
2022-12-14T17:54:08.644Z,10.6
2022-12-14T17:56:04.287Z,10.5
2022-12-14T17:58:18.553Z,10.6
2022-12-14T18:00:04.259Z,10.7
2022-12-14T18:02:04.430Z,10.7
2022-12-14T18:04:04.261Z,10.7
2022-12-14T18:06:04.222Z,10.7
2022-12-14T18:08:28.857Z,10.7
2022-12-14T18:10:05.313Z,10.8
2022-12-14T18:12:22.921Z,10.8
2022-12-14T18:14:05.447Z,10.9
2022-12-14T18:16:09.607Z,10.8
2022-12-14T18:18:04.267Z,10.8
2022-12-14T18:20:10.350Z,10.9
2022-12-14T18:22:04.262Z,10.9
2022-12-14T18:24:11.697Z,10.9
2022-12-14T18:26:12.635Z,10.9
2022-12-14T18:28:05.407Z,10.9
2022-12-14T18:30:05.796Z,11
2022-12-14T18:32:05.442Z,11
2022-12-14T18:34:04.205Z,11
2022-12-14T18:36:06.661Z,11
2022-12-14T18:38:10.111Z,11
2022-12-14T18:40:05.701Z,11.1
2022-12-14T18:43:01.744Z,11
2022-12-14T18:44:09.866Z,11
2022-12-14T18:45:46.862Z,11
2022-12-14T18:46:18.450Z,11
2022-12-14T18:48:04.115Z,11.1
2022-12-14T18:50:04.144Z,11.1
2022-12-14T18:52:05.232Z,11.1
2022-12-14T18:54:06.149Z,11.1
2022-12-14T18:56:04.282Z,11.1
2022-12-14T18:58:05.209Z,11.1
2022-12-14T19:00:04.098Z,11.2
2022-12-14T19:02:06.965Z,11.2
2022-12-14T19:04:04.280Z,11.2
2022-12-14T19:06:43.342Z,11.2
2022-12-14T19:08:04.186Z,11.2
2022-12-14T19:10:06.959Z,11.3
2022-12-14T19:12:04.154Z,11.3
2022-12-14T19:14:06.984Z,11.3
2022-12-14T19:16:05.192Z,11.3
2022-12-14T19:18:04.117Z,11.3
2022-12-14T19:20:14.548Z,11.3
2022-12-14T19:22:04.104Z,11.3
2022-12-14T19:24:11.900Z,11.3
2022-12-14T19:26:04.111Z,11.3
2022-12-14T19:28:37.472Z,11.3
2022-12-14T19:30:04.064Z,11.4
2022-12-14T19:32:05.918Z,11.3
2022-12-14T19:34:04.126Z,11.3
2022-12-14T19:36:04.086Z,11.3
2022-12-14T19:38:04.147Z,11.3
2022-12-14T19:40:07.699Z,11.4
2022-12-14T19:42:10.004Z,11.3
2022-12-14T19:44:04.058Z,11.3
2022-12-14T19:46:05.301Z,11.3
2022-12-14T19:48:14.707Z,11.3
2022-12-14T19:50:06.288Z,11.4
2022-12-14T19:52:05.380Z,11.4
2022-12-14T19:54:04.752Z,11.4
2022-12-14T19:56:06.743Z,11.4
2022-12-14T19:58:04.095Z,11.4
2022-12-14T20:00:37.925Z,11.4
2022-12-14T20:02:04.064Z,11.4
2022-12-14T20:04:04.116Z,11.4
2022-12-14T20:06:05.456Z,11.4
2022-12-14T20:08:04.020Z,11.4
2022-12-14T20:10:04.065Z,11.4
2022-12-14T20:12:04.087Z,11.4
2022-12-14T20:14:04.083Z,11.4
2022-12-14T20:16:06.600Z,11.4
2022-12-14T20:18:05.110Z,11.4
2022-12-14T20:19:42.831Z,11.4
2022-12-14T20:20:04.048Z,11.5
2022-12-14T20:22:05.315Z,11.4
2022-12-14T20:24:04.049Z,11.4
2022-12-14T20:26:04.011Z,11.4
2022-12-14T20:28:04.084Z,11.4
2022-12-14T20:30:11.616Z,11.5
2022-12-14T20:32:31.435Z,11.5
2022-12-14T20:34:05.100Z,11.5
2022-12-14T20:36:08.363Z,11.5
2022-12-14T20:38:08.523Z,11.5
2022-12-14T20:40:14.545Z,11.5
2022-12-14T20:42:04.006Z,11.5
2022-12-14T20:44:03.936Z,11.5
2022-12-14T20:46:04.045Z,11.5
2022-12-14T20:48:03.958Z,11.4
2022-12-14T20:50:05.549Z,11.5
2022-12-14T20:52:21.842Z,11.5
2022-12-14T20:54:04.210Z,11.5
2022-12-14T20:56:05.263Z,11.4
2022-12-14T20:58:04.088Z,11.4
2022-12-14T21:00:04.016Z,11.5
2022-12-14T21:02:04.307Z,11.4
2022-12-14T21:02:35.259Z,11.4
2022-12-14T21:04:05.210Z,11.4
2022-12-14T21:06:03.946Z,11.4
2022-12-14T21:08:03.932Z,11.4
2022-12-14T21:10:29.651Z,11.4
2022-12-14T21:12:05.271Z,11.4
2022-12-14T21:14:03.883Z,11.4
2022-12-14T21:16:03.876Z,11.4
2022-12-14T21:18:03.965Z,11.3
2022-12-14T21:20:04.220Z,11.4
2022-12-14T21:22:05.312Z,11.4
2022-12-14T21:24:04.025Z,11.3
2022-12-14T21:26:14.435Z,11.3
2022-12-14T21:28:03.895Z,11.3
2022-12-14T21:30:16.020Z,11.3
2022-12-14T21:32:28.796Z,11.3
2022-12-14T21:34:03.897Z,11.3
2022-12-14T21:36:05.539Z,11.3
2022-12-14T21:38:03.995Z,11.2
2022-12-14T21:40:03.992Z,11.3
2022-12-14T21:42:04.193Z,11.3
2022-12-14T21:44:08.179Z,11.2
2022-12-14T21:46:29.471Z,11.2
2022-12-14T21:48:14.409Z,11.2
2022-12-14T21:50:03.948Z,11.2
2022-12-14T21:52:34.525Z,11.2
2022-12-14T21:55:45.076Z,27.5
2022-12-14T21:55:45.096Z,11.2
2022-12-14T21:56:05.195Z,11.1
2022-12-14T21:58:30.938Z,11.1
2022-12-14T22:00:37.226Z,11.1
2022-12-14T22:01:04.317Z,11.1
2022-12-14T22:02:25.182Z,11.1
2022-12-14T22:04:26.828Z,11.1
2022-12-14T22:06:08.329Z,11
2022-12-14T22:08:05.012Z,11
2022-12-14T22:10:09.911Z,11.1
2022-12-14T22:12:18.133Z,11
2022-12-14T22:14:29.611Z,11
2022-12-14T22:16:05.185Z,11
2022-12-14T22:18:29.748Z,11
2022-12-14T22:20:03.920Z,11
2022-12-14T22:22:03.921Z,11
2022-12-14T22:24:08.508Z,11
2022-12-14T22:26:03.831Z,11
2022-12-14T22:28:39.737Z,11
2022-12-14T22:30:04.158Z,11.1
2022-12-14T22:32:04.316Z,11
2022-12-14T22:33:05.818Z,11
2022-12-14T22:34:33.020Z,11
2022-12-14T22:36:03.869Z,11
2022-12-14T22:38:03.798Z,11
2022-12-14T22:40:04.873Z,11
2022-12-14T22:42:03.983Z,11
2022-12-14T22:44:09.730Z,10.9
2022-12-14T22:46:09.633Z,10.9
2022-12-14T22:48:26.474Z,10.9
2022-12-14T22:50:05.893Z,11
2022-12-14T22:52:04.955Z,10.9
2022-12-14T22:54:29.778Z,10.9
2022-12-14T22:56:03.836Z,10.9
2022-12-14T22:58:05.186Z,10.9
2022-12-14T23:00:18.245Z,11
2022-12-14T23:02:08.189Z,10.9
2022-12-14T23:04:03.844Z,10.9
2022-12-14T23:06:29.917Z,10.9
2022-12-14T23:08:08.325Z,10.9
2022-12-14T23:10:04.894Z,10.9
2022-12-14T23:12:40.212Z,10.9
2022-12-14T23:14:31.514Z,10.9
2022-12-14T23:16:03.828Z,10.9
2022-12-14T23:18:03.771Z,10.8
2022-12-14T23:20:05.006Z,10.9
2022-12-14T23:22:03.838Z,10.8
2022-12-14T23:24:03.735Z,10.8
2022-12-14T23:26:03.732Z,10.8
2022-12-14T23:28:10.037Z,10.8
2022-12-14T23:30:09.559Z,10.8
2022-12-14T23:32:03.821Z,10.7
2022-12-14T23:34:06.489Z,10.7
2022-12-14T23:36:05.034Z,10.7
2022-12-14T23:38:03.866Z,10.7
2022-12-14T23:40:20.501Z,10.8
2022-12-14T23:42:05.781Z,10.7
2022-12-14T23:44:03.822Z,10.7
2022-12-14T23:46:03.797Z,10.7
2022-12-14T23:48:04.935Z,10.7
2022-12-14T23:50:04.874Z,10.8
2022-12-14T23:52:07.937Z,10.8
2022-12-14T23:54:03.777Z,10.8
2022-12-14T23:56:03.724Z,10.7
2022-12-14T23:58:03.724Z,10.7
